createdAt,value
2016-05-05T00:00:13.976Z,21.42
2016-05-05T00:01:13.964Z,21.46
2016-05-05T00:02:13.810Z,21.4
2016-05-05T00:03:13.953Z,21.42
2016-05-05T00:04:13.769Z,21.52
2016-05-05T00:05:13.911Z,21.55
2016-05-05T00:06:13.742Z,21.5
2016-05-05T00:07:13.886Z,21.57
2016-05-05T00:08:13.700Z,21.57
2016-05-05T00:09:13.704Z,21.48
2016-05-05T00:10:13.675Z,21.46
2016-05-05T00:11:13.663Z,21.46
2016-05-05T00:12:13.805Z,21.42
2016-05-05T00:13:13.808Z,21.62
2016-05-05T00:14:13.624Z,21.61
2016-05-05T00:15:13.766Z,21.7
2016-05-05T00:16:13.754Z,21.73
2016-05-05T00:17:13.740Z,21.72
2016-05-05T00:18:13.713Z,21.66
2016-05-05T00:19:13.559Z,21.54
2016-05-05T00:20:13.687Z,21.52
2016-05-05T00:21:13.533Z,21.42
2016-05-05T00:22:13.660Z,21.55
2016-05-05T00:23:13.648Z,21.61
2016-05-05T00:24:13.651Z,21.62
2016-05-05T00:25:13.481Z,21.58
2016-05-05T00:26:13.609Z,21.55
2016-05-05T00:27:13.596Z,21.61
2016-05-05T00:28:13.583Z,21.51
2016-05-05T00:29:13.554Z,21.51
2016-05-05T00:30:13.541Z,21.43
2016-05-05T00:31:13.388Z,21.43
2016-05-05T00:32:13.515Z,21.52
2016-05-05T00:33:13.502Z,21.43
2016-05-05T00:34:13.490Z,21.4
2016-05-05T00:35:13.477Z,21.32
2016-05-05T00:36:13.464Z,21.29
2016-05-05T00:37:13.451Z,21.35
2016-05-05T00:38:13.438Z,21.42
2016-05-05T00:39:13.644Z,21.54
2016-05-05T00:40:13.255Z,21.39
2016-05-05T00:41:13.399Z,21.6
2016-05-05T00:42:13.214Z,21.54
2016-05-05T00:43:13.374Z,21.43
2016-05-05T00:44:13.344Z,21.35
2016-05-05T00:45:13.332Z,21.39
2016-05-05T00:46:13.334Z,21.4
2016-05-05T00:47:13.306Z,21.24
2016-05-05T00:48:13.137Z,21.25
2016-05-05T00:49:13.124Z,21.11
2016-05-05T00:50:13.282Z,21.15
2016-05-05T00:51:13.083Z,21.09
2016-05-05T00:52:13.226Z,21.25
2016-05-05T00:53:13.072Z,21.17
2016-05-05T00:54:13.199Z,21.27
2016-05-05T00:55:13.187Z,21.17
2016-05-05T00:56:13.190Z,21.12
2016-05-05T00:57:13.005Z,21.3
2016-05-05T00:58:13.149Z,21.15
2016-05-05T00:59:12.963Z,21.22
2016-05-05T01:00:13.106Z,21.09
2016-05-05T01:01:13.093Z,21.2
2016-05-05T01:02:13.096Z,21.21
2016-05-05T01:03:13.067Z,21.15
2016-05-05T01:04:13.070Z,20.92
2016-05-05T01:05:12.901Z,21.12
2016-05-05T01:06:13.029Z,21.12
2016-05-05T01:07:13.016Z,21.2
2016-05-05T01:08:13.003Z,21.06
2016-05-05T01:09:12.989Z,21.03
2016-05-05T01:10:12.992Z,20.85
2016-05-05T01:11:12.964Z,20.78
2016-05-05T01:12:12.951Z,20.82
2016-05-05T01:13:12.922Z,20.9
2016-05-05T01:14:12.910Z,20.97
2016-05-05T01:15:12.913Z,20.95
2016-05-05T01:16:12.884Z,20.85
2016-05-05T01:17:12.871Z,20.81
2016-05-05T01:18:12.718Z,20.82
2016-05-05T01:19:12.845Z,20.97
2016-05-05T01:20:12.676Z,20.84
2016-05-05T01:21:12.819Z,20.7
2016-05-05T01:22:12.791Z,20.82
2016-05-05T01:23:12.777Z,20.88
2016-05-05T01:24:12.952Z,20.81
2016-05-05T01:25:12.596Z,20.7
2016-05-05T01:26:12.583Z,20.82
2016-05-05T01:27:12.726Z,20.85
2016-05-05T01:28:12.698Z,20.84
2016-05-05T01:29:12.684Z,20.82
2016-05-05T01:30:12.515Z,20.84
2016-05-05T01:31:12.659Z,20.72
2016-05-05T01:32:12.662Z,20.85
2016-05-05T01:33:12.461Z,20.96
2016-05-05T01:34:12.620Z,21.14
2016-05-05T01:35:12.451Z,21.17
2016-05-05T01:36:12.595Z,21.17
2016-05-05T01:37:12.581Z,21
2016-05-05T01:38:12.568Z,20.97
2016-05-05T01:39:13.852Z,20.8
2016-05-05T01:40:12.527Z,20.75
2016-05-05T01:41:12.514Z,20.82
2016-05-05T01:42:12.517Z,20.69
2016-05-05T01:43:12.488Z,20.75
2016-05-05T01:44:12.334Z,20.9
2016-05-05T01:45:12.478Z,20.77
2016-05-05T01:46:12.449Z,20.69
2016-05-05T01:47:12.420Z,20.74
2016-05-05T01:48:12.407Z,20.81
2016-05-05T01:49:12.410Z,20.85
2016-05-05T01:50:12.382Z,20.97
2016-05-05T01:51:12.369Z,20.92
2016-05-05T01:52:12.376Z,20.88
2016-05-05T01:53:12.093Z,20.82
2016-05-05T01:54:12.171Z,20.96
2016-05-05T01:55:12.294Z,21.03
2016-05-05T01:56:12.495Z,20.92
2016-05-05T01:57:12.355Z,20.9
2016-05-05T01:58:12.498Z,20.88
2016-05-05T01:59:12.344Z,20.81
2016-05-05T02:00:12.190Z,21.02
2016-05-05T02:01:12.522Z,20.82
2016-05-05T02:02:12.363Z,20.81
2016-05-05T02:03:12.497Z,20.84
2016-05-05T02:04:12.488Z,20.9
2016-05-05T02:05:12.170Z,20.96
2016-05-05T02:06:12.475Z,20.9
2016-05-05T02:07:12.450Z,20.93
2016-05-05T02:08:12.439Z,20.96
2016-05-05T02:09:12.725Z,21
2016-05-05T02:10:12.417Z,21.18
2016-05-05T02:11:12.405Z,21.12
2016-05-05T02:12:12.395Z,21.21
2016-05-05T02:13:12.383Z,21.21
2016-05-05T02:14:12.354Z,21.2
2016-05-05T02:15:12.343Z,21.18
2016-05-05T02:16:12.345Z,21
2016-05-05T02:17:12.334Z,21.02
2016-05-05T02:18:12.149Z,21.15
2016-05-05T02:19:12.293Z,21.22
2016-05-05T02:20:12.280Z,21.12
2016-05-05T02:21:12.267Z,21.06
2016-05-05T02:22:12.240Z,21.05
2016-05-05T02:23:11.932Z,20.92
2016-05-05T02:24:12.074Z,20.99
2016-05-05T02:25:12.046Z,20.7
2016-05-05T02:26:12.189Z,20.74
2016-05-05T02:27:12.020Z,20.66
2016-05-05T02:28:12.163Z,20.69
2016-05-05T02:29:12.166Z,20.6
2016-05-05T02:30:12.123Z,20.66
2016-05-05T02:31:12.140Z,20.72
2016-05-05T02:32:12.128Z,20.7
2016-05-05T02:33:12.098Z,20.63
2016-05-05T02:34:12.070Z,20.67
2016-05-05T02:35:12.073Z,20.63
2016-05-05T02:36:12.044Z,20.67
2016-05-05T02:37:11.875Z,20.84
2016-05-05T02:38:12.019Z,20.85
2016-05-05T02:39:12.475Z,20.99
2016-05-05T02:40:11.978Z,20.96
2016-05-05T02:41:11.980Z,20.95
2016-05-05T02:42:11.795Z,20.8
2016-05-05T02:43:11.797Z,20.82
2016-05-05T02:44:11.926Z,20.92
2016-05-05T02:45:11.772Z,20.96
2016-05-05T02:46:11.899Z,20.97
2016-05-05T02:47:11.730Z,20.93
2016-05-05T02:48:11.717Z,20.88
2016-05-05T02:49:11.860Z,20.85
2016-05-05T02:50:11.848Z,21
2016-05-05T02:51:11.819Z,20.96
2016-05-05T02:52:11.822Z,20.97
2016-05-05T02:53:11.637Z,21.14
2016-05-05T02:54:11.796Z,21.09
2016-05-05T02:55:11.596Z,21.14
2016-05-05T02:56:11.755Z,21.18
2016-05-05T02:57:11.726Z,21.15
2016-05-05T02:58:11.729Z,21.21
2016-05-05T02:59:11.716Z,21.17
2016-05-05T03:00:11.719Z,21.07
2016-05-05T03:01:11.377Z,21.14
2016-05-05T03:02:11.662Z,21.27
2016-05-05T03:03:11.648Z,21.25
2016-05-05T03:04:11.635Z,21.3
2016-05-05T03:05:11.623Z,21.39
2016-05-05T03:06:11.609Z,21.36
2016-05-05T03:07:11.440Z,21.42
2016-05-05T03:08:11.584Z,21.5
2016-05-05T03:09:11.946Z,21.42
2016-05-05T03:10:11.558Z,21.39
2016-05-05T03:11:11.528Z,21.5
2016-05-05T03:12:11.516Z,21.52
2016-05-05T03:13:11.363Z,21.55
2016-05-05T03:14:11.491Z,21.39
2016-05-05T03:15:11.305Z,21.45
2016-05-05T03:16:11.464Z,21.4
2016-05-05T03:17:11.452Z,21.46
2016-05-05T03:18:11.283Z,21.42
2016-05-05T03:19:11.411Z,21.46
2016-05-05T03:20:11.397Z,21.43
2016-05-05T03:21:11.243Z,21.36
2016-05-05T03:22:11.371Z,21.17
2016-05-05T03:23:11.358Z,21.15
2016-05-05T03:24:11.205Z,21.15
2016-05-05T03:25:11.333Z,21.2
2016-05-05T03:26:11.319Z,21.33
2016-05-05T03:27:11.307Z,21.27
2016-05-05T03:28:11.278Z,21.2
2016-05-05T03:29:11.110Z,21.15
2016-05-05T03:30:11.252Z,21.18
2016-05-05T03:31:11.254Z,21.25
2016-05-05T03:32:11.226Z,21.25
2016-05-05T03:33:11.213Z,21.15
2016-05-05T03:34:11.201Z,21.2
2016-05-05T03:35:11.188Z,21.21
2016-05-05T03:36:11.175Z,21.2
2016-05-05T03:37:11.178Z,21.18
2016-05-05T03:38:10.977Z,21.11
2016-05-05T03:39:12.417Z,21.21
2016-05-05T03:40:11.107Z,21.21
2016-05-05T03:41:10.953Z,21.22
2016-05-05T03:42:11.081Z,21.21
2016-05-05T03:43:10.912Z,21.21
2016-05-05T03:44:11.056Z,21.12
2016-05-05T03:45:11.027Z,21.25
2016-05-05T03:46:11.030Z,21.27
2016-05-05T03:47:11.001Z,21.27
2016-05-05T03:48:10.989Z,21.14
2016-05-05T03:49:10.960Z,21.03
2016-05-05T03:50:10.805Z,20.88
2016-05-05T03:51:10.949Z,20.99
2016-05-05T03:52:10.780Z,21.07
2016-05-05T03:53:10.766Z,20.96
2016-05-05T03:54:10.785Z,20.97
2016-05-05T03:55:10.882Z,20.85
2016-05-05T03:56:10.869Z,20.5
2016-05-05T03:57:10.872Z,20.6
2016-05-05T03:58:10.859Z,20.69
2016-05-05T03:59:10.690Z,20.66
2016-05-05T04:00:10.817Z,20.59
2016-05-05T04:01:10.804Z,20.59
2016-05-05T04:02:10.791Z,20.43
2016-05-05T04:03:10.622Z,20.52
2016-05-05T04:04:10.750Z,20.5
2016-05-05T04:05:10.737Z,20.51
2016-05-05T04:06:10.724Z,20.58
2016-05-05T04:07:10.727Z,20.14
2016-05-05T04:08:10.542Z,20.24
2016-05-05T04:09:10.982Z,20.39
2016-05-05T04:10:10.672Z,20.32
2016-05-05T04:11:10.644Z,20.43
2016-05-05T04:12:10.631Z,20.56
2016-05-05T04:13:10.634Z,20.44
2016-05-05T04:14:10.605Z,20.03
2016-05-05T04:15:10.295Z,19.67
2016-05-05T04:16:10.595Z,19.66
2016-05-05T04:17:10.567Z,19.88
2016-05-05T04:18:10.553Z,20
2016-05-05T04:19:10.541Z,20.09
2016-05-05T04:20:10.527Z,20.02
2016-05-05T04:21:10.342Z,20.16
2016-05-05T04:22:10.486Z,20.26
2016-05-05T04:23:10.316Z,20.03
2016-05-05T04:24:10.866Z,19.95
2016-05-05T04:25:10.447Z,19.89
2016-05-05T04:26:10.419Z,19.88
2016-05-05T04:27:10.250Z,19.86
2016-05-05T04:28:10.236Z,19.86
2016-05-05T04:29:10.224Z,19.88
2016-05-05T04:30:10.070Z,19.91
2016-05-05T04:31:10.182Z,19.79
2016-05-05T04:32:10.341Z,19.86
2016-05-05T04:33:10.328Z,19.95
2016-05-05T04:34:10.315Z,20.02
2016-05-05T04:35:10.301Z,20
2016-05-05T04:36:10.290Z,19.89
2016-05-05T04:37:10.104Z,19.86
2016-05-05T04:38:10.248Z,19.91
2016-05-05T04:39:10.798Z,19.86
2016-05-05T04:40:10.206Z,19.88
2016-05-05T04:41:10.193Z,19.92
2016-05-05T04:42:10.196Z,19.86
2016-05-05T04:43:10.026Z,19.77
2016-05-05T04:44:10.154Z,19.69
2016-05-05T04:45:10.142Z,19.63
2016-05-05T04:46:10.129Z,19.66
2016-05-05T04:47:09.944Z,19.63
2016-05-05T04:48:09.930Z,19.58
2016-05-05T04:49:10.075Z,19.77
2016-05-05T04:50:10.077Z,19.7
2016-05-05T04:51:09.877Z,19.73
2016-05-05T04:52:10.019Z,19.71
2016-05-05T04:53:10.008Z,19.74
2016-05-05T04:54:10.010Z,19.73
2016-05-05T04:55:09.965Z,19.76
2016-05-05T04:56:09.969Z,19.82
2016-05-05T04:57:09.939Z,19.79
2016-05-05T04:58:09.941Z,19.82
2016-05-05T04:59:09.914Z,19.77
2016-05-05T05:00:09.901Z,19.71
2016-05-05T05:01:09.888Z,19.63
2016-05-05T05:02:09.875Z,19.74
2016-05-05T05:03:09.846Z,19.84
2016-05-05T05:04:09.848Z,19.84
2016-05-05T05:05:09.835Z,19.84
2016-05-05T05:06:09.652Z,19.81
2016-05-05T05:07:09.795Z,19.7
2016-05-05T05:08:09.782Z,19.74
2016-05-05T05:09:09.768Z,19.79
2016-05-05T05:10:09.740Z,19.77
2016-05-05T05:11:09.726Z,19.92
2016-05-05T05:12:09.730Z,19.96
2016-05-05T05:13:09.543Z,19.92
2016-05-05T05:14:09.686Z,19.91
2016-05-05T05:15:09.673Z,19.86
2016-05-05T05:16:09.645Z,19.85
2016-05-05T05:17:09.647Z,19.85
2016-05-05T05:18:09.617Z,19.92
2016-05-05T05:19:09.605Z,19.94
2016-05-05T05:20:09.577Z,20.06
2016-05-05T05:21:09.580Z,20.16
2016-05-05T05:22:09.551Z,20.09
2016-05-05T05:23:09.553Z,20.02
2016-05-05T05:24:09.384Z,19.99
2016-05-05T05:25:09.528Z,19.99
2016-05-05T05:26:09.499Z,19.94
2016-05-05T05:27:09.471Z,19.96
2016-05-05T05:28:09.473Z,19.99
2016-05-05T05:29:09.444Z,19.92
2016-05-05T05:30:09.432Z,19.94
2016-05-05T05:31:09.419Z,19.88
2016-05-05T05:32:09.390Z,19.92
2016-05-05T05:33:09.393Z,19.94
2016-05-05T05:34:09.380Z,20
2016-05-05T05:35:09.367Z,19.92
2016-05-05T05:36:09.338Z,19.95
2016-05-05T05:37:09.310Z,19.92
2016-05-05T05:38:09.312Z,20.04
2016-05-05T05:39:09.331Z,20.14
2016-05-05T05:40:09.271Z,20.11
2016-05-05T05:41:09.259Z,20.13
2016-05-05T05:42:09.245Z,20.14
2016-05-05T05:43:09.232Z,20.14
2016-05-05T05:44:09.219Z,20.16
2016-05-05T05:45:09.206Z,20.19
2016-05-05T05:46:09.037Z,20.1
2016-05-05T05:47:09.165Z,20.09
2016-05-05T05:48:09.152Z,20.09
2016-05-05T05:49:09.155Z,20.14
2016-05-05T05:50:08.814Z,20.09
2016-05-05T05:51:09.113Z,20.04
2016-05-05T05:52:09.100Z,20.11
2016-05-05T05:53:09.087Z,20.07
2016-05-05T05:54:09.699Z,20.16
2016-05-05T05:55:08.889Z,20.24
2016-05-05T05:56:09.033Z,20.14
2016-05-05T05:57:09.019Z,20.07
2016-05-05T05:58:09.007Z,20
2016-05-05T05:59:08.822Z,20.07
2016-05-05T06:00:08.981Z,20.14
2016-05-05T06:01:08.968Z,20.06
2016-05-05T06:02:08.940Z,20.04
2016-05-05T06:03:08.910Z,20.13
2016-05-05T06:04:08.913Z,20.13
2016-05-05T06:05:08.588Z,20.14
2016-05-05T06:06:08.872Z,20.16
2016-05-05T06:07:08.875Z,20.22
2016-05-05T06:08:08.862Z,20.16
2016-05-05T06:09:08.661Z,20.16
2016-05-05T06:10:08.664Z,20.11
2016-05-05T06:11:08.793Z,20.1
2016-05-05T06:12:08.810Z,20.18
2016-05-05T06:13:08.781Z,20.14
2016-05-05T06:14:08.597Z,20.09
2016-05-05T06:15:08.740Z,20.11
2016-05-05T06:16:08.727Z,20.1
2016-05-05T06:17:08.558Z,20.18
2016-05-05T06:18:08.545Z,20.16
2016-05-05T06:19:08.688Z,20.14
2016-05-05T06:20:08.675Z,20.18
2016-05-05T06:21:08.662Z,20.37
2016-05-05T06:22:08.337Z,20.14
2016-05-05T06:23:08.615Z,20.03
2016-05-05T06:24:10.274Z,20.11
2016-05-05T06:25:08.589Z,20.18
2016-05-05T06:26:08.560Z,20.06
2016-05-05T06:27:08.549Z,20
2016-05-05T06:28:08.535Z,20.02
2016-05-05T06:29:08.365Z,19.91
2016-05-05T06:30:08.509Z,19.99
2016-05-05T06:31:08.496Z,20.02
2016-05-05T06:32:08.312Z,20.09
2016-05-05T06:33:08.455Z,20.11
2016-05-05T06:34:08.145Z,20.26
2016-05-05T06:35:08.429Z,20.22
2016-05-05T06:36:08.415Z,20.25
2016-05-05T06:37:08.387Z,20.1
2016-05-05T06:38:08.234Z,20.28
2016-05-05T06:39:08.658Z,20.39
2016-05-05T06:40:08.192Z,20.36
2016-05-05T06:41:08.023Z,20.44
2016-05-05T06:42:08.322Z,20.56
2016-05-05T06:43:08.154Z,20.63
2016-05-05T06:44:08.297Z,20.74
2016-05-05T06:45:08.112Z,20.74
2016-05-05T06:46:08.270Z,20.8
2016-05-05T06:47:08.242Z,20.8
2016-05-05T06:48:08.230Z,20.8
2016-05-05T06:49:08.232Z,20.87
2016-05-05T06:50:08.047Z,20.78
2016-05-05T06:51:08.191Z,20.82
2016-05-05T06:52:08.177Z,20.72
2016-05-05T06:53:08.008Z,20.67
2016-05-05T06:54:07.996Z,20.85
2016-05-05T06:55:07.983Z,20.82
2016-05-05T06:56:08.126Z,20.72
2016-05-05T06:57:07.957Z,20.7
2016-05-05T06:58:08.069Z,20.82
2016-05-05T06:59:07.915Z,20.81
2016-05-05T07:00:07.902Z,20.7
2016-05-05T07:01:07.873Z,20.82
2016-05-05T07:02:08.018Z,20.77
2016-05-05T07:03:08.020Z,20.82
2016-05-05T07:04:07.851Z,20.8
2016-05-05T07:05:07.963Z,20.82
2016-05-05T07:06:07.982Z,20.8
2016-05-05T07:07:07.952Z,20.85
2016-05-05T07:08:07.784Z,20.77
2016-05-05T07:09:08.161Z,20.84
2016-05-05T07:10:07.914Z,20.66
2016-05-05T07:11:07.885Z,20.69
2016-05-05T07:12:07.872Z,20.84
2016-05-05T07:13:07.859Z,20.78
2016-05-05T07:14:07.846Z,20.77
2016-05-05T07:15:07.834Z,20.67
2016-05-05T07:16:07.664Z,20.7
2016-05-05T07:17:07.791Z,20.75
2016-05-05T07:18:07.623Z,20.7
2016-05-05T07:19:07.766Z,20.82
2016-05-05T07:20:07.753Z,20.84
2016-05-05T07:21:07.739Z,20.88
2016-05-05T07:22:07.727Z,20.81
2016-05-05T07:23:07.714Z,20.87
2016-05-05T07:24:07.544Z,20.9
2016-05-05T07:25:07.672Z,20.8
2016-05-05T07:26:07.503Z,20.82
2016-05-05T07:27:07.663Z,20.87
2016-05-05T07:28:07.477Z,20.78
2016-05-05T07:29:07.605Z,20.72
2016-05-05T07:30:07.593Z,20.66
2016-05-05T07:31:07.580Z,20.4
2016-05-05T07:32:07.566Z,20.59
2016-05-05T07:33:07.554Z,20.65
2016-05-05T07:34:07.541Z,20.51
2016-05-05T07:35:07.527Z,20.62
2016-05-05T07:36:07.515Z,20.48
2016-05-05T07:37:07.502Z,20.41
2016-05-05T07:38:07.473Z,20.4
2016-05-05T07:39:07.726Z,20.55
2016-05-05T07:40:07.447Z,20.51
2016-05-05T07:41:07.279Z,20.41
2016-05-05T07:42:07.421Z,20.41
2016-05-05T07:43:07.408Z,20.25
2016-05-05T07:44:07.396Z,20.39
2016-05-05T07:45:07.367Z,20.4
2016-05-05T07:46:07.386Z,20.43
2016-05-05T07:47:07.341Z,20.22
2016-05-05T07:48:07.359Z,20.1
2016-05-05T07:49:07.315Z,20.29
2016-05-05T07:50:07.302Z,20.36
2016-05-05T07:51:07.275Z,20.29
2016-05-05T07:52:07.261Z,20.26
2016-05-05T07:53:07.248Z,20.39
2016-05-05T07:54:06.938Z,20.37
2016-05-05T07:55:06.925Z,20.36
2016-05-05T07:56:07.052Z,20.41
2016-05-05T07:57:07.196Z,20.21
2016-05-05T07:58:07.168Z,20.13
2016-05-05T07:59:07.155Z,20.24
2016-05-05T08:00:07.142Z,20.13
2016-05-05T08:01:07.144Z,20.06
2016-05-05T08:02:07.100Z,20
2016-05-05T08:03:07.102Z,20.07
2016-05-05T08:04:07.090Z,19.96
2016-05-05T08:05:07.077Z,20.02
2016-05-05T08:06:07.049Z,19.84
2016-05-05T08:07:07.036Z,19.76
2016-05-05T08:08:07.023Z,19.76
2016-05-05T08:09:07.009Z,19.76
2016-05-05T08:10:06.841Z,19.63
2016-05-05T08:11:06.968Z,19.55
2016-05-05T08:12:06.815Z,19.52
2016-05-05T08:13:06.942Z,19.48
2016-05-05T08:14:06.773Z,19.41
2016-05-05T08:15:06.901Z,19.41
2016-05-05T08:16:06.748Z,19.41
2016-05-05T08:17:06.875Z,19.24
2016-05-05T08:18:06.861Z,19.31
2016-05-05T08:19:06.521Z,19.39
2016-05-05T08:20:06.836Z,19.22
2016-05-05T08:21:06.667Z,19.15
2016-05-05T08:22:06.639Z,18.83
2016-05-05T08:23:06.782Z,18.74
2016-05-05T08:24:06.769Z,18.88
2016-05-05T08:25:06.912Z,18.83
2016-05-05T08:26:06.727Z,18.86
2016-05-05T08:27:06.730Z,18.88
2016-05-05T08:28:06.545Z,18.81
2016-05-05T08:29:06.689Z,18.88
2016-05-05T08:30:06.691Z,18.84
2016-05-05T08:31:06.663Z,18.81
2016-05-05T08:32:06.635Z,18.8
2016-05-05T08:33:06.637Z,18.71
2016-05-05T08:34:06.593Z,18.84
2016-05-05T08:35:06.627Z,18.9
2016-05-05T08:36:06.598Z,18.75
2016-05-05T08:37:06.554Z,18.81
2016-05-05T08:38:06.229Z,18.86
2016-05-05T08:39:06.793Z,18.78
2016-05-05T08:40:06.374Z,18.71
2016-05-05T08:41:06.486Z,18.84
2016-05-05T08:42:06.723Z,18.75
2016-05-05T08:43:06.460Z,18.59
2016-05-05T08:44:06.463Z,18.59
2016-05-05T08:45:06.434Z,18.8
2016-05-05T08:46:06.407Z,18.71
2016-05-05T08:47:06.268Z,18.7
2016-05-05T08:48:06.380Z,18.66
2016-05-05T08:49:06.367Z,18.73
2016-05-05T08:50:06.339Z,18.71
2016-05-05T08:51:06.186Z,18.81
2016-05-05T08:52:06.328Z,18.81
2016-05-05T08:53:06.316Z,18.78
2016-05-05T08:54:06.287Z,18.77
2016-05-05T08:55:06.102Z,18.68
2016-05-05T08:56:06.245Z,18.62
2016-05-05T08:57:06.092Z,18.7
2016-05-05T08:58:06.220Z,18.65
2016-05-05T08:59:06.207Z,18.62
2016-05-05T09:00:06.193Z,18.53
2016-05-05T09:01:06.181Z,18.5
2016-05-05T09:02:05.997Z,18.35
2016-05-05T09:03:06.154Z,18.45
2016-05-05T09:04:06.174Z,18.41
2016-05-05T09:05:06.098Z,18.44
2016-05-05T09:06:05.944Z,18.53
2016-05-05T09:07:06.071Z,18.6
2016-05-05T09:08:05.902Z,18.5
2016-05-05T09:09:06.030Z,18.63
2016-05-05T09:10:05.862Z,18.59
2016-05-05T09:11:06.004Z,18.53
2016-05-05T09:12:05.976Z,18.56
2016-05-05T09:13:05.963Z,18.65
2016-05-05T09:14:05.794Z,18.45
2016-05-05T09:15:05.968Z,18.49
2016-05-05T09:16:05.909Z,18.44
2016-05-05T09:17:05.896Z,18.47
2016-05-05T09:18:05.743Z,18.55
2016-05-05T09:19:05.869Z,18.49
2016-05-05T09:20:05.857Z,18.53
2016-05-05T09:21:05.828Z,18.44
2016-05-05T09:22:05.847Z,18.62
2016-05-05T09:23:05.881Z,18.75
2016-05-05T09:24:05.820Z,18.75
2016-05-05T09:25:05.917Z,18.8
2016-05-05T09:26:05.841Z,18.7
2016-05-05T09:27:05.798Z,18.7
2016-05-05T09:28:06.081Z,18.6
2016-05-05T09:29:05.694Z,18.71
2016-05-05T09:30:05.870Z,18.73
2016-05-05T09:31:05.706Z,18.77
2016-05-05T09:32:05.661Z,18.89
2016-05-05T09:33:06.224Z,18.68
2016-05-05T09:34:05.606Z,18.73
2016-05-05T09:35:05.436Z,18.78
2016-05-05T09:36:05.580Z,18.81
2016-05-05T09:37:05.567Z,18.8
2016-05-05T09:38:05.554Z,18.68
2016-05-05T09:39:05.587Z,18.81
2016-05-05T09:40:05.341Z,18.88
2016-05-05T09:41:05.343Z,18.84
2016-05-05T09:42:05.487Z,18.65
2016-05-05T09:43:05.531Z,18.6
2016-05-05T09:44:05.487Z,18.65
2016-05-05T09:45:05.457Z,18.65
2016-05-05T09:46:05.428Z,18.65
2016-05-05T09:47:05.401Z,18.8
2016-05-05T09:48:05.950Z,18.86
2016-05-05T09:49:05.359Z,18.71
2016-05-05T09:50:05.362Z,18.66
2016-05-05T09:51:05.364Z,18.73
2016-05-05T09:52:05.367Z,18.74
2016-05-05T09:53:05.323Z,18.63
2016-05-05T09:54:05.325Z,18.77
2016-05-05T09:55:05.266Z,18.75
2016-05-05T09:56:05.253Z,18.66
2016-05-05T09:57:05.083Z,18.65
2016-05-05T09:58:05.227Z,18.7
2016-05-05T09:59:05.199Z,18.75
2016-05-05T10:00:05.216Z,18.6
2016-05-05T10:01:04.844Z,18.47
2016-05-05T10:02:05.160Z,18.53
2016-05-05T10:03:05.130Z,18.55
2016-05-05T10:04:05.118Z,18.47
2016-05-05T10:05:05.104Z,18.44
2016-05-05T10:06:05.076Z,18.47
2016-05-05T10:07:05.063Z,18.52
2016-05-05T10:08:04.910Z,18.58
2016-05-05T10:09:04.881Z,18.56
2016-05-05T10:10:05.259Z,18.4
2016-05-05T10:11:05.262Z,18.31
2016-05-05T10:12:04.983Z,18.33
2016-05-05T10:13:04.971Z,18.43
2016-05-05T10:14:04.957Z,18.4
2016-05-05T10:15:04.928Z,18.38
2016-05-05T10:16:04.916Z,18.45
2016-05-05T10:17:04.903Z,18.35
2016-05-05T10:18:04.889Z,18.31
2016-05-05T10:19:05.143Z,18.23
2016-05-05T10:20:05.020Z,18.1
2016-05-05T10:21:04.835Z,18.08
2016-05-05T10:22:04.823Z,18.08
2016-05-05T10:23:04.684Z,18.11
2016-05-05T10:24:04.797Z,18.08
2016-05-05T10:25:04.971Z,18.08
2016-05-05T10:26:04.755Z,17.86
2016-05-05T10:27:04.742Z,17.87
2016-05-05T10:28:04.573Z,17.92
2016-05-05T10:29:04.700Z,18.04
2016-05-05T10:30:04.672Z,17.98
2016-05-05T10:31:04.674Z,17.92
2016-05-05T10:32:04.677Z,17.87
2016-05-05T10:33:04.634Z,17.9
2016-05-05T10:34:04.480Z,18
2016-05-05T10:35:04.608Z,17.9
2016-05-05T10:36:04.579Z,17.82
2016-05-05T10:37:04.566Z,17.79
2016-05-05T10:38:04.554Z,17.9
2016-05-05T10:39:04.587Z,17.9
2016-05-05T10:40:06.262Z,17.83
2016-05-05T10:41:04.498Z,17.68
2016-05-05T10:42:04.329Z,17.65
2016-05-05T10:43:04.473Z,17.79
2016-05-05T10:44:04.476Z,17.74
2016-05-05T10:45:04.337Z,17.87
2016-05-05T10:46:04.450Z,17.97
2016-05-05T10:47:04.343Z,18.1
2016-05-05T10:48:04.377Z,18.03
2016-05-05T10:49:04.301Z,18.07
2016-05-05T10:50:04.336Z,18.05
2016-05-05T10:51:04.416Z,18.01
2016-05-05T10:52:04.153Z,17.89
2016-05-05T10:53:04.297Z,18.01
2016-05-05T10:54:04.283Z,18.08
2016-05-05T10:55:04.114Z,18.1
2016-05-05T10:56:04.680Z,18.07
2016-05-05T10:57:04.230Z,17.98
2016-05-05T10:58:04.216Z,18
2016-05-05T10:59:04.220Z,18.07
2016-05-05T11:00:04.266Z,18.07
2016-05-05T11:01:04.265Z,18.1
2016-05-05T11:02:04.312Z,18.01
2016-05-05T11:03:04.608Z,18.16
2016-05-05T11:04:04.337Z,18.1
2016-05-05T11:05:04.340Z,18
2016-05-05T11:06:04.343Z,18.03
2016-05-05T11:07:04.330Z,18.11
2016-05-05T11:08:04.192Z,18.13
2016-05-05T11:09:04.173Z,17.98
2016-05-05T11:10:05.462Z,18.08
2016-05-05T11:11:04.298Z,18.15
2016-05-05T11:12:04.291Z,18.15
2016-05-05T11:13:04.127Z,18.08
2016-05-05T11:14:04.288Z,17.94
2016-05-05T11:15:04.277Z,17.92
2016-05-05T11:16:04.297Z,17.92
2016-05-05T11:17:04.224Z,17.85
2016-05-05T11:18:04.056Z,17.87
2016-05-05T11:19:04.092Z,18.03
2016-05-05T11:20:04.173Z,18.03
2016-05-05T11:21:04.176Z,18.1
2016-05-05T11:22:03.993Z,18.16
2016-05-05T11:23:04.168Z,18.08
2016-05-05T11:24:04.105Z,18.11
2016-05-05T11:25:04.015Z,18.08
2016-05-05T11:26:04.065Z,18.05
2016-05-05T11:27:04.052Z,18.13
2016-05-05T11:28:03.914Z,18.22
2016-05-05T11:29:03.886Z,18.16
2016-05-05T11:30:04.030Z,18.18
2016-05-05T11:31:04.000Z,18.19
2016-05-05T11:32:03.973Z,18.26
2016-05-05T11:33:03.976Z,18.45
2016-05-05T11:34:03.791Z,18.47
2016-05-05T11:35:03.933Z,18.45
2016-05-05T11:36:03.921Z,18.5
2016-05-05T11:37:03.908Z,18.55
2016-05-05T11:38:03.879Z,18.6
2016-05-05T11:39:03.866Z,18.63
2016-05-05T11:40:03.933Z,18.83
2016-05-05T11:41:03.857Z,18.59
2016-05-05T11:42:03.828Z,18.56
2016-05-05T11:43:03.799Z,18.63
2016-05-05T11:44:03.646Z,18.65
2016-05-05T11:45:03.773Z,18.78
2016-05-05T11:46:03.605Z,18.71
2016-05-05T11:47:03.732Z,18.71
2016-05-05T11:48:03.719Z,18.8
2016-05-05T11:49:03.737Z,18.68
2016-05-05T11:50:03.677Z,18.59
2016-05-05T11:51:03.696Z,18.74
2016-05-05T11:52:03.651Z,18.71
2016-05-05T11:53:03.639Z,18.59
2016-05-05T11:54:03.642Z,18.78
2016-05-05T11:55:03.613Z,18.71
2016-05-05T11:56:03.616Z,18.74
2016-05-05T11:57:03.415Z,18.8
2016-05-05T11:58:03.403Z,18.92
2016-05-05T11:59:03.545Z,18.96
2016-05-05T12:00:03.376Z,18.84
2016-05-05T12:01:03.535Z,18.88
2016-05-05T12:02:03.538Z,18.68
2016-05-05T12:03:03.478Z,18.81
2016-05-05T12:04:03.450Z,18.8
2016-05-05T12:05:03.281Z,18.78
2016-05-05T12:06:03.439Z,18.86
2016-05-05T12:07:03.427Z,18.9
2016-05-05T12:08:03.397Z,18.81
2016-05-05T12:09:03.228Z,18.8
2016-05-05T12:10:03.372Z,18.78
2016-05-05T12:11:03.219Z,18.68
2016-05-05T12:12:03.346Z,18.77
2016-05-05T12:13:03.333Z,18.81
2016-05-05T12:14:03.304Z,18.78
2016-05-05T12:15:03.291Z,18.9
2016-05-05T12:16:03.106Z,18.83
2016-05-05T12:17:03.266Z,18.89
2016-05-05T12:18:03.097Z,18.78
2016-05-05T12:19:03.084Z,18.83
2016-05-05T12:20:03.227Z,18.84
2016-05-05T12:21:03.276Z,18.86
2016-05-05T12:22:03.685Z,18.81
2016-05-05T12:23:03.187Z,18.68
2016-05-05T12:24:03.159Z,18.8
2016-05-05T12:25:03.132Z,18.7
2016-05-05T12:26:03.009Z,18.8
2016-05-05T12:27:03.715Z,18.78
2016-05-05T12:28:03.123Z,18.8
2016-05-05T12:29:02.892Z,18.86
2016-05-05T12:30:03.050Z,18.88
2016-05-05T12:31:03.085Z,18.93
2016-05-05T12:32:02.994Z,18.86
2016-05-05T12:33:02.996Z,18.9
2016-05-05T12:34:02.999Z,18.83
2016-05-05T12:35:02.970Z,18.8
2016-05-05T12:36:02.957Z,18.8
2016-05-05T12:37:02.788Z,18.86
2016-05-05T12:38:03.088Z,18.86
2016-05-05T12:39:02.903Z,18.73
2016-05-05T12:40:03.936Z,18.81
2016-05-05T12:41:02.877Z,18.8
2016-05-05T12:42:02.708Z,18.8
2016-05-05T12:43:02.851Z,18.83
2016-05-05T12:44:02.822Z,18.78
2016-05-05T12:45:02.825Z,18.7
2016-05-05T12:46:02.782Z,18.71
2016-05-05T12:47:02.784Z,18.73
2016-05-05T12:48:02.615Z,18.83
2016-05-05T12:49:02.758Z,18.8
2016-05-05T12:50:02.557Z,18.68
2016-05-05T12:51:02.732Z,18.74
2016-05-05T12:52:02.578Z,18.81
2016-05-05T12:53:02.690Z,18.68
2016-05-05T12:54:02.724Z,18.71
2016-05-05T12:55:02.993Z,18.73
2016-05-05T12:56:03.387Z,18.84
2016-05-05T12:57:02.451Z,18.83